GMME/RBA METAR and TAF weather

Enter ICAO airport designator
Station Type Date Time Source
GMME METAR 2022/01/29 10:00 UTC NOAA

GMME 291000Z 17003KT 6000 NSC 17/05 Q1023 NOSIG


Station Type Date Time Source
GMME Decoded METAR 2022/01/29 10:00 UTC NOAA

Rabat-Sale, Morocco (GMME) 34-03N 006-46W 75M
Jan 29, 2022 - 05:00 AM EST / 2022.01.29 1000 UTC
Wind: from the S (170 degrees) at 3 MPH (3 KT):0
Visibility: 3 mile(s):0
Temperature: 62 F (17 C)
Dew Point: 41 F (5 C)
Relative Humidity: 45%
Pressure (altimeter): 30.21 in. Hg (1023 hPa)
ob: GMME 291000Z 17003KT 6000 NSC 17/05 Q1023 NOSIG
cycle: 10

Station Type Date Time Source
GMME TAF 2022/01/29 06:18 UTC NOAA

TAF GMME 290500Z 2906/3012 12005KT 6000 NSC
TEMPO 2914/2920 SCT016
TEMPO 2921/3008 VRB02KT

Example: see airport list